Estación Meteorológica Peña el Pijo (Robertgarden) [ 01/20/18 04:10:14 CET ]

Fecha Hora Presion(HPa) Temp (°C) Humedad % Rocio (°C) Viento ( m/s) Direccion Lluvia 1Hora(mm) Lluvia 24H(mm) LLuvia Total(mm)
2017-Nov-30 01:01:33 998.600 5.1 88 3.3       9.84 1479.40
2017-Nov-30 02:01:42 998.600 4.6 87 2.6       8.28 1479.40
2017-Nov-30 03:04:54 998.700 4.1 87 2.1       7.25 1479.40
2017-Nov-30 04:01:43 999.000 3.4 88 1.6       7.25 1479.40
2017-Nov-30 05:03:45 998.800 3.8 88 2.0       7.25 1479.40
2017-Nov-30 06:04:02 998.800 3.8 88 2.0       5.69 1479.40
2017-Nov-30 07:01:40 998.900 3.6 88 1.8       5.18 1479.40
2017-Nov-30 08:02:02 999.600 3.2 88 1.4       4.66 1479.40
2017-Nov-30 09:01:33 1000.300 3.5 88 1.7       3.62 1479.40
2017-Nov-30 10:01:22 1000.900 4.4 87 2.4       2.07 1479.40
2017-Nov-30 11:01:46 1001.800 5.9 84 3.4     0.51 1.55 1479.92
2017-Nov-30 12:01:47 1002.100 5.8 73 1.3       1.03 1479.92
2017-Nov-30 13:01:41 1001.600 6.9 61 -0.1       0.51 1479.92
2017-Nov-30 14:01:44 1001.600 8.3 51 -1.3       0.51 1479.92
2017-Nov-30 15:01:41 1001.600 8.4 45 -2.9       0.51 1479.92
2017-Nov-30 16:01:56 1002.100 7.4 44 -4.1       0.51 1479.92
2017-Nov-30 17:02:08 1003.400 5.3 48 -4.9       0.51 1479.92
2017-Nov-30 18:01:37 1003.900 3.1 57 -4.6       0.51 1479.92
2017-Nov-30 19:01:38 1005.300 0.9 66 -4.8       0.51 1479.92
2017-Nov-30 20:01:55 1006.100 -0.7 71 -5.3       0.51 1479.92
2017-Nov-30 21:01:41 1006.800 -1.2 75 -5.1       0.51 1479.92
2017-Nov-30 22:01:54 1007.300 -1.9 77 -5.4       0.51 1479.92

Temperatura Máxima:    Temperatura Mínima:-1°
Presión Máxima:1007.300 Hpa    Presión Mínima:998.600 Hpa


Volver